createdAt,value
2023-03-12T00:00:57.785Z,3.90
2023-03-12T00:03:27.568Z,3.80
2023-03-12T00:06:03.865Z,3.63
2023-03-12T00:08:39.048Z,3.88
2023-03-12T00:11:18.923Z,3.72
2023-03-12T00:13:56.635Z,3.30
2023-03-12T00:16:31.324Z,3.25
2023-03-12T00:19:03.310Z,2.92
2023-03-12T00:21:33.570Z,3.20
2023-03-12T00:24:03.525Z,2.92
2023-03-12T00:26:37.029Z,3.42
2023-03-12T00:29:07.262Z,3.67
2023-03-12T00:31:38.520Z,3.50
2023-03-12T00:34:17.583Z,3.70
2023-03-12T00:36:48.919Z,3.53
2023-03-12T00:39:18.832Z,3.97
2023-03-12T00:41:48.698Z,4.47
2023-03-12T00:44:19.874Z,3.33
2023-03-12T00:46:49.672Z,3.50
2023-03-12T00:49:20.159Z,3.22
2023-03-12T00:51:51.711Z,2.90
2023-03-12T00:54:22.982Z,3.13
2023-03-12T00:56:53.016Z,3.03
2023-03-12T00:59:22.717Z,2.97
2023-03-12T01:01:53.089Z,3.25
2023-03-12T01:04:23.198Z,3.00
2023-03-12T01:06:53.471Z,3.00
2023-03-12T01:09:24.718Z,3.20
2023-03-12T01:11:54.969Z,3.13
2023-03-12T01:14:25.399Z,3.50
2023-03-12T01:16:56.095Z,3.85
2023-03-12T01:19:26.641Z,3.50
2023-03-12T01:21:56.980Z,3.67
2023-03-12T01:24:26.790Z,3.17
2023-03-12T01:26:57.963Z,3.75
2023-03-12T01:29:27.910Z,3.85
2023-03-12T01:31:57.594Z,3.55
2023-03-12T01:34:28.040Z,3.25
2023-03-12T01:36:57.779Z,3.50
2023-03-12T01:39:29.006Z,3.33
2023-03-12T01:41:58.964Z,3.78
2023-03-12T01:44:30.124Z,3.53
2023-03-12T01:47:01.023Z,3.63
2023-03-12T01:49:34.751Z,4.13
2023-03-12T01:52:38.181Z,4.00
2023-03-12T01:55:19.152Z,4.00
2023-03-12T01:57:58.196Z,4.20
2023-03-12T02:00:30.817Z,4.60
2023-03-12T02:03:09.045Z,4.70
2023-03-12T02:05:58.157Z,3.90
2023-03-12T02:08:30.867Z,4.22
2023-03-12T02:11:01.099Z,4.45
2023-03-12T02:13:32.012Z,4.68
2023-03-12T02:16:02.167Z,4.00
2023-03-12T02:18:32.866Z,4.43
2023-03-12T02:21:30.672Z,4.97
2023-03-12T02:24:20.601Z,5.70
2023-03-12T02:26:50.967Z,5.80
2023-03-12T02:29:21.808Z,6.32
2023-03-12T02:31:55.649Z,6.47
2023-03-12T02:34:25.967Z,5.60
2023-03-12T02:36:57.659Z,5.88
2023-03-12T02:39:29.656Z,6.65
2023-03-12T02:42:03.261Z,6.28
2023-03-12T02:44:40.619Z,5.85
2023-03-12T02:47:10.914Z,7.90
2023-03-12T02:49:41.815Z,7.25
2023-03-12T02:52:14.432Z,6.82
2023-03-12T02:54:45.118Z,6.88
2023-03-12T02:57:15.991Z,6.95
2023-03-12T02:59:49.218Z,6.50
2023-03-12T03:02:19.518Z,5.75
2023-03-12T03:04:49.387Z,5.78
2023-03-12T03:07:22.952Z,5.63
2023-03-12T03:09:53.135Z,5.00
2023-03-12T03:12:24.030Z,5.55
2023-03-12T03:14:54.623Z,5.28
2023-03-12T03:17:25.669Z,5.15
2023-03-12T03:19:56.160Z,5.28
2023-03-12T03:22:25.972Z,5.70
2023-03-12T03:24:56.477Z,5.78
2023-03-12T03:27:26.576Z,6.30
2023-03-12T03:29:57.026Z,5.72
2023-03-12T03:32:27.856Z,6.93
2023-03-12T03:34:58.217Z,7.00
2023-03-12T03:37:28.181Z,6.00
2023-03-12T03:39:58.679Z,5.40
2023-03-12T03:42:29.514Z,5.95
2023-03-12T03:45:00.319Z,5.93
2023-03-12T03:47:30.497Z,5.85
2023-03-12T03:50:00.886Z,5.97
2023-03-12T03:52:31.452Z,6.70
2023-03-12T03:55:02.117Z,6.88
2023-03-12T03:57:33.127Z,6.03
2023-03-12T04:00:04.072Z,5.40
2023-03-12T04:02:42.958Z,5.50
2023-03-12T04:05:14.464Z,5.85
2023-03-12T04:07:44.572Z,4.50
2023-03-12T04:10:16.155Z,4.60
2023-03-12T04:12:46.459Z,4.47
2023-03-12T04:15:16.171Z,3.85
2023-03-12T04:17:46.683Z,3.90
2023-03-12T04:20:16.617Z,3.63
2023-03-12T04:22:46.222Z,4.20
2023-03-12T04:25:17.693Z,5.45
2023-03-12T04:27:47.641Z,4.05
2023-03-12T04:30:17.765Z,4.57
2023-03-12T04:32:48.781Z,4.57
2023-03-12T04:35:18.756Z,4.97
2023-03-12T04:37:49.647Z,4.30
2023-03-12T04:40:21.158Z,4.15
2023-03-12T04:42:52.630Z,3.83
2023-03-12T04:45:23.089Z,3.58
2023-03-12T04:47:55.120Z,3.17
2023-03-12T04:50:28.312Z,3.40
2023-03-12T04:53:00.679Z,3.20
2023-03-12T04:55:30.863Z,4.13
2023-03-12T04:58:01.224Z,5.00
2023-03-12T05:00:31.844Z,4.95
2023-03-12T05:03:02.815Z,5.32
2023-03-12T05:05:32.915Z,6.47
2023-03-12T05:08:04.233Z,5.50
2023-03-12T05:13:06.009Z,6.68
2023-03-12T05:15:41.753Z,6.40
2023-03-12T05:18:16.835Z,6.60
2023-03-12T05:20:46.626Z,7.55
2023-03-12T05:23:16.459Z,6.20
2023-03-12T05:25:46.995Z,7.25
2023-03-12T05:28:17.350Z,6.05
2023-03-12T05:30:48.227Z,6.07
2023-03-12T05:33:18.425Z,7.53
2023-03-12T05:35:48.881Z,6.45
2023-03-12T05:38:19.559Z,6.50
2023-03-12T05:40:56.044Z,6.28
2023-03-12T05:43:27.386Z,6.60
2023-03-12T05:46:07.290Z,6.93
2023-03-12T05:48:37.820Z,7.10
2023-03-12T05:51:08.462Z,7.47
2023-03-12T05:53:39.712Z,7.07
2023-03-12T05:56:14.706Z,7.50
2023-03-12T05:58:51.246Z,8.52
2023-03-12T06:01:25.859Z,11.02
2023-03-12T06:03:58.367Z,10.52
2023-03-12T06:06:31.480Z,9.30
2023-03-12T06:11:33.357Z,9.23
2023-03-12T06:14:03.622Z,8.77
2023-03-12T06:16:35.364Z,8.65
2023-03-12T06:19:06.965Z,8.35
2023-03-12T06:21:37.981Z,9.65
2023-03-12T06:24:10.492Z,8.63
2023-03-12T06:26:57.925Z,9.10
2023-03-12T06:29:28.784Z,11.23
2023-03-12T06:31:59.292Z,11.55
2023-03-12T06:34:29.664Z,11.35
2023-03-12T06:37:00.174Z,13.27
2023-03-12T06:39:31.421Z,11.80
2023-03-12T06:42:01.810Z,11.50
2023-03-12T06:44:31.952Z,10.88
2023-03-12T06:47:02.573Z,11.98
2023-03-12T06:49:34.570Z,9.88
2023-03-12T06:52:05.253Z,9.65
2023-03-12T06:54:35.298Z,9.20
2023-03-12T06:57:06.132Z,9.38
2023-03-12T06:59:36.133Z,9.77
2023-03-12T07:02:06.739Z,12.35
2023-03-12T07:04:36.847Z,11.45
2023-03-12T07:07:09.789Z,9.70
2023-03-12T07:12:20.498Z,9.25
2023-03-12T07:14:50.412Z,8.93
2023-03-12T07:17:20.927Z,9.60
2023-03-12T07:19:50.981Z,10.10
2023-03-12T07:22:21.229Z,9.27
2023-03-12T07:24:52.497Z,9.82
2023-03-12T07:27:22.716Z,10.50
2023-03-12T07:29:53.979Z,9.60
2023-03-12T07:32:24.328Z,10.40
2023-03-12T07:34:54.302Z,8.80
2023-03-12T07:37:24.922Z,10.02
2023-03-12T07:39:56.114Z,11.65
2023-03-12T07:42:26.777Z,11.82
2023-03-12T07:44:59.975Z,11.70
2023-03-12T07:47:30.495Z,13.20
2023-03-12T07:50:02.277Z,11.35
2023-03-12T07:52:34.115Z,11.38
2023-03-12T07:55:04.244Z,11.52
2023-03-12T07:57:34.048Z,10.73
2023-03-12T08:00:08.425Z,9.65
2023-03-12T08:02:46.416Z,7.97
2023-03-12T08:05:17.569Z,8.63
2023-03-12T08:07:47.860Z,9.70
2023-03-12T08:10:18.335Z,8.90
2023-03-12T08:12:49.184Z,9.63
2023-03-12T08:15:19.951Z,9.77
2023-03-12T08:17:50.032Z,11.20
2023-03-12T08:20:20.409Z,10.13
2023-03-12T08:22:50.684Z,9.88
2023-03-12T08:25:22.273Z,10.68
2023-03-12T08:27:53.666Z,12.73
2023-03-12T08:30:24.069Z,15.20
2023-03-12T08:32:53.970Z,14.20
2023-03-12T08:35:24.631Z,14.68
2023-03-12T08:37:54.474Z,11.68
2023-03-12T08:40:27.192Z,12.90
2023-03-12T08:42:57.232Z,13.48
2023-03-12T08:45:26.885Z,13.95
2023-03-12T08:50:30.648Z,9.55
2023-03-12T08:53:01.401Z,9.40
2023-03-12T08:55:31.211Z,10.50
2023-03-12T08:58:00.788Z,10.00
2023-03-12T09:00:31.571Z,10.23
2023-03-12T09:03:01.522Z,9.70
2023-03-12T09:05:32.525Z,10.32
2023-03-12T09:08:02.842Z,9.43
2023-03-12T09:10:33.794Z,9.63
2023-03-12T09:13:04.926Z,10.18
2023-03-12T09:15:35.875Z,9.02
2023-03-12T09:18:05.871Z,8.45
2023-03-12T09:20:36.245Z,9.70
2023-03-12T09:23:07.778Z,12.00
2023-03-12T09:25:38.262Z,10.80
2023-03-12T09:28:08.030Z,12.25
2023-03-12T09:30:38.553Z,10.77
2023-03-12T09:33:08.518Z,10.93
2023-03-12T09:35:38.804Z,9.50
2023-03-12T09:38:15.098Z,9.93
2023-03-12T09:40:48.605Z,8.80
2023-03-12T09:43:24.787Z,6.93
2023-03-12T09:45:56.254Z,7.22
2023-03-12T09:48:37.641Z,7.90
2023-03-12T09:51:15.646Z,8.15
2023-03-12T09:53:53.274Z,7.40
2023-03-12T09:56:24.688Z,6.47
2023-03-12T09:58:55.775Z,7.00
2023-03-12T10:01:52.533Z,6.82
2023-03-12T10:04:57.986Z,6.22
2023-03-12T10:07:42.084Z,5.55
2023-03-12T10:10:18.611Z,4.85
2023-03-12T10:13:09.498Z,3.97
2023-03-12T10:16:04.484Z,3.67
2023-03-12T10:18:39.052Z,3.38
2023-03-12T10:21:38.820Z,3.42
2023-03-12T10:24:09.771Z,3.00
2023-03-12T10:26:55.725Z,3.22
2023-03-12T10:29:32.428Z,3.40
2023-03-12T10:32:08.432Z,2.95
2023-03-12T10:35:02.053Z,3.00
2023-03-12T10:37:41.285Z,3.58
2023-03-12T10:40:38.050Z,3.78
2023-03-12T10:43:09.486Z,3.63
2023-03-12T10:46:30.242Z,3.95
2023-03-12T10:49:31.009Z,3.42
2023-03-12T10:52:08.046Z,3.85
2023-03-12T10:54:41.899Z,3.70
2023-03-12T10:57:13.633Z,3.33
2023-03-12T11:02:26.652Z,3.05
2023-03-12T11:04:57.154Z,3.70
2023-03-12T11:07:34.698Z,3.63
2023-03-12T11:10:10.910Z,3.92
2023-03-12T11:12:42.060Z,3.53
2023-03-12T11:15:24.930Z,3.17
2023-03-12T11:18:04.783Z,3.38
2023-03-12T11:20:34.966Z,3.38
2023-03-12T11:23:21.529Z,3.78
2023-03-12T11:26:04.087Z,3.63
2023-03-12T11:28:40.036Z,3.25
2023-03-12T11:31:38.460Z,3.45
2023-03-12T11:34:17.066Z,3.42
2023-03-12T11:37:07.962Z,3.42
2023-03-12T11:39:50.834Z,3.28
2023-03-12T11:42:21.817Z,2.90
2023-03-12T11:45:10.121Z,2.85
2023-03-12T11:47:58.714Z,3.60
2023-03-12T11:50:50.192Z,2.58
2023-03-12T11:53:32.204Z,3.08
2023-03-12T11:56:26.860Z,2.58
2023-03-12T11:59:19.966Z,2.65
2023-03-12T12:02:10.484Z,2.08
2023-03-12T12:05:00.046Z,2.55
2023-03-12T12:08:00.204Z,2.38
2023-03-12T12:10:42.478Z,2.17
2023-03-12T12:13:29.928Z,1.88
2023-03-12T12:16:27.484Z,2.38
2023-03-12T12:19:06.978Z,2.13
2023-03-12T12:22:01.574Z,1.42
2023-03-12T12:24:56.087Z,1.83
2023-03-12T12:27:36.375Z,2.10
2023-03-12T12:30:15.216Z,1.80
2023-03-12T12:35:42.895Z,1.50
2023-03-12T12:38:19.370Z,1.30
2023-03-12T12:41:17.753Z,1.67
2023-03-12T12:43:53.620Z,1.38
2023-03-12T12:46:43.256Z,1.58
2023-03-12T12:49:32.020Z,1.80
2023-03-12T12:52:08.750Z,1.50
2023-03-12T12:54:56.526Z,1.05
2023-03-12T12:57:34.380Z,1.50
2023-03-12T13:00:16.531Z,1.90
2023-03-12T13:02:49.233Z,1.95
2023-03-12T13:05:42.236Z,1.73
2023-03-12T13:08:38.035Z,1.92
2023-03-12T13:11:19.767Z,2.35
2023-03-12T13:14:12.034Z,2.55
2023-03-12T13:16:49.042Z,3.03
2023-03-12T13:19:19.269Z,2.50
2023-03-12T13:21:48.973Z,1.88
2023-03-12T13:24:24.800Z,1.83
2023-03-12T13:27:22.481Z,1.95
2023-03-12T13:29:58.172Z,2.25
2023-03-12T13:32:37.673Z,2.40
2023-03-12T13:35:19.030Z,2.58
2023-03-12T13:37:49.174Z,2.67
2023-03-12T13:40:30.796Z,2.45
2023-03-12T13:43:10.116Z,2.20
2023-03-12T13:45:43.758Z,2.47
2023-03-12T13:48:20.911Z,2.33
2023-03-12T13:51:00.346Z,2.50
2023-03-12T13:53:42.128Z,2.60
2023-03-12T13:56:19.013Z,2.45
2023-03-12T13:58:56.490Z,3.03
2023-03-12T14:01:31.814Z,3.90
2023-03-12T14:04:07.086Z,3.58
2023-03-12T14:06:59.796Z,3.00
2023-03-12T14:09:58.210Z,3.90
2023-03-12T14:12:56.378Z,2.97
2023-03-12T14:15:55.229Z,2.00
2023-03-12T14:18:29.729Z,2.95
2023-03-12T14:21:11.390Z,1.95
2023-03-12T14:23:47.621Z,1.88
2023-03-12T14:26:22.879Z,2.03
2023-03-12T14:29:28.415Z,1.30
2023-03-12T14:32:03.679Z,1.63
2023-03-12T14:35:00.944Z,1.52
2023-03-12T14:37:38.595Z,1.55
2023-03-12T14:40:38.834Z,1.90
2023-03-12T14:43:28.835Z,1.60
2023-03-12T14:46:00.895Z,1.95
2023-03-12T14:48:33.805Z,2.30
2023-03-12T14:51:06.515Z,2.10
2023-03-12T14:53:39.071Z,1.80
2023-03-12T14:56:16.196Z,2.22
2023-03-12T14:58:49.370Z,2.03
2023-03-12T15:01:32.086Z,2.33
2023-03-12T15:04:09.494Z,2.83
2023-03-12T15:06:45.782Z,1.85
2023-03-12T15:09:23.178Z,2.55
2023-03-12T15:12:08.358Z,1.80
2023-03-12T15:14:43.704Z,2.55
2023-03-12T15:17:21.656Z,5.45
2023-03-12T15:19:55.801Z,4.00
2023-03-12T15:22:29.001Z,2.50
2023-03-12T15:25:04.746Z,1.80
2023-03-12T15:27:35.285Z,2.20
2023-03-12T15:30:28.036Z,1.58
2023-03-12T15:33:06.826Z,1.60
2023-03-12T15:35:59.141Z,1.58
2023-03-12T15:38:30.897Z,1.45
2023-03-12T15:41:10.916Z,1.80
2023-03-12T15:43:45.028Z,1.98
2023-03-12T15:46:18.175Z,1.77
2023-03-12T15:48:55.907Z,1.58
2023-03-12T15:54:25.366Z,1.85
2023-03-12T15:56:56.588Z,1.73
2023-03-12T15:59:28.962Z,1.95
2023-03-12T16:01:59.204Z,1.42
2023-03-12T16:04:29.136Z,1.83
2023-03-12T16:07:03.036Z,1.85
2023-03-12T16:09:35.025Z,2.03
2023-03-12T16:12:05.515Z,1.63
2023-03-12T16:14:37.492Z,1.63
2023-03-12T16:17:21.275Z,2.33
2023-03-12T16:19:51.375Z,1.70
2023-03-12T16:22:23.551Z,1.90
2023-03-12T16:24:53.750Z,1.67
2023-03-12T16:27:32.488Z,1.58
2023-03-12T16:30:03.247Z,1.77
2023-03-12T16:32:33.501Z,1.77
2023-03-12T16:35:03.495Z,1.85
2023-03-12T16:37:33.960Z,1.55
2023-03-12T16:40:03.797Z,1.92
2023-03-12T16:42:35.714Z,2.35
2023-03-12T16:45:06.455Z,1.75
2023-03-12T16:47:36.959Z,1.60
2023-03-12T16:50:23.624Z,1.30
2023-03-12T16:52:54.331Z,2.15
2023-03-12T16:55:28.622Z,2.10
2023-03-12T16:58:03.642Z,1.80
2023-03-12T17:00:36.583Z,1.80
2023-03-12T17:03:08.291Z,2.05
2023-03-12T17:05:38.198Z,1.63
2023-03-12T17:08:08.391Z,1.58
2023-03-12T17:10:38.194Z,2.33
2023-03-12T17:13:09.253Z,2.08
2023-03-12T17:15:39.353Z,1.40
2023-03-12T17:18:12.993Z,1.65
2023-03-12T17:20:43.425Z,1.80
2023-03-12T17:23:13.897Z,1.70
2023-03-12T17:25:45.555Z,1.85
2023-03-12T17:28:18.894Z,2.00
2023-03-12T17:30:48.814Z,1.48
2023-03-12T17:33:20.069Z,2.00
2023-03-12T17:36:02.267Z,2.20
2023-03-12T17:38:32.960Z,1.95
2023-03-12T17:41:16.511Z,2.30
2023-03-12T17:43:59.568Z,1.70
2023-03-12T17:46:31.091Z,2.47
2023-03-12T17:49:01.627Z,1.73
2023-03-12T17:51:31.950Z,2.00
2023-03-12T17:54:01.577Z,2.00
2023-03-12T17:56:31.437Z,2.22
2023-03-12T17:59:05.255Z,2.17
2023-03-12T18:01:36.430Z,1.83
2023-03-12T18:04:07.275Z,2.20
2023-03-12T18:06:38.769Z,2.28
2023-03-12T18:09:08.962Z,2.13
2023-03-12T18:11:38.876Z,2.67
2023-03-12T18:14:09.389Z,3.28
2023-03-12T18:16:40.462Z,1.83
2023-03-12T18:19:10.785Z,2.40
2023-03-12T18:21:40.428Z,2.42
2023-03-12T18:24:14.670Z,2.47
2023-03-12T18:26:46.421Z,2.60
2023-03-12T18:29:18.014Z,2.50
2023-03-12T18:31:49.947Z,2.40
2023-03-12T18:34:21.840Z,2.65
2023-03-12T18:36:54.347Z,2.70
2023-03-12T18:39:26.804Z,2.55
2023-03-12T18:41:57.598Z,2.30
2023-03-12T18:44:29.207Z,2.17
2023-03-12T18:46:59.917Z,2.70
2023-03-12T18:49:29.881Z,2.50
2023-03-12T18:52:00.107Z,3.28
2023-03-12T18:54:30.102Z,3.28
2023-03-12T18:57:00.424Z,3.17
2023-03-12T18:59:32.265Z,3.10
2023-03-12T19:02:02.886Z,3.45
2023-03-12T19:04:32.858Z,2.78
2023-03-12T19:07:03.630Z,3.10
2023-03-12T19:09:34.534Z,3.50
2023-03-12T19:12:05.275Z,3.58
2023-03-12T19:14:35.351Z,3.05
2023-03-12T19:17:06.188Z,3.03
2023-03-12T19:19:35.950Z,3.50
2023-03-12T19:22:05.948Z,3.45
2023-03-12T19:24:36.474Z,3.28
2023-03-12T19:27:06.246Z,3.63
2023-03-12T19:29:36.473Z,3.88
2023-03-12T19:32:06.623Z,3.88
2023-03-12T19:34:37.198Z,4.50
2023-03-12T19:37:07.208Z,4.07
2023-03-12T19:39:38.582Z,3.88
2023-03-12T19:42:08.690Z,2.90
2023-03-12T19:44:41.988Z,3.88
2023-03-12T19:47:13.144Z,4.40
2023-03-12T19:49:44.969Z,4.07
2023-03-12T19:52:16.179Z,4.78
2023-03-12T19:54:54.587Z,4.55
2023-03-12T19:57:35.323Z,5.10
2023-03-12T20:00:10.809Z,4.50
2023-03-12T20:02:42.410Z,4.28
2023-03-12T20:05:14.209Z,4.53
2023-03-12T20:07:45.501Z,3.53
2023-03-12T20:10:16.297Z,3.80
2023-03-12T20:12:46.821Z,3.72
2023-03-12T20:15:17.090Z,3.50
2023-03-12T20:17:47.363Z,3.08
2023-03-12T20:20:19.031Z,3.50
2023-03-12T20:22:48.874Z,2.63
2023-03-12T20:25:19.556Z,3.40
2023-03-12T20:27:49.748Z,3.45
2023-03-12T20:30:20.174Z,3.55
2023-03-12T20:32:51.369Z,3.30
2023-03-12T20:35:21.075Z,4.03
2023-03-12T20:37:51.809Z,3.65
2023-03-12T20:40:21.674Z,4.15
2023-03-12T20:42:51.912Z,4.75
2023-03-12T20:45:21.760Z,4.05
2023-03-12T20:47:51.996Z,3.80
2023-03-12T20:50:21.983Z,4.07
2023-03-12T20:52:55.215Z,3.45
2023-03-12T20:55:25.180Z,3.78
2023-03-12T20:57:58.555Z,3.90
2023-03-12T21:00:28.413Z,3.53
2023-03-12T21:03:00.708Z,3.70
2023-03-12T21:05:33.138Z,4.45
2023-03-12T21:08:03.276Z,3.63
2023-03-12T21:10:36.600Z,3.63
2023-03-12T21:13:07.009Z,4.18
2023-03-12T21:15:39.355Z,3.33
2023-03-12T21:18:09.346Z,3.95
2023-03-12T21:20:41.349Z,3.70
2023-03-12T21:23:12.604Z,3.28
2023-03-12T21:25:44.796Z,4.30
2023-03-12T21:28:14.955Z,4.25
2023-03-12T21:30:46.657Z,3.78
2023-03-12T21:33:16.658Z,3.92
2023-03-12T21:35:47.012Z,3.72
2023-03-12T21:38:20.375Z,3.45
2023-03-12T21:40:50.279Z,4.07
2023-03-12T21:43:20.711Z,3.80
2023-03-12T21:45:50.670Z,4.00
2023-03-12T21:48:20.930Z,3.25
2023-03-12T21:50:51.260Z,3.63
2023-03-12T21:53:24.033Z,3.28
2023-03-12T21:56:00.280Z,3.55
2023-03-12T21:58:32.123Z,3.00
2023-03-12T22:01:10.108Z,3.10
2023-03-12T22:03:41.612Z,3.13
2023-03-12T22:06:12.480Z,3.33
2023-03-12T22:08:44.139Z,3.75
2023-03-12T22:11:14.009Z,3.42
2023-03-12T22:13:44.637Z,2.90
2023-03-12T22:16:15.665Z,3.60
2023-03-12T22:18:47.661Z,3.30
2023-03-12T22:21:23.178Z,3.05
2023-03-12T22:23:54.964Z,3.80
2023-03-12T22:26:27.976Z,3.53
2023-03-12T22:28:59.871Z,3.75
2023-03-12T22:31:31.206Z,3.25
2023-03-12T22:34:01.759Z,3.50
2023-03-12T22:36:31.746Z,2.80
2023-03-12T22:39:02.191Z,3.20
2023-03-12T22:41:32.188Z,2.80
2023-03-12T22:44:08.800Z,3.47
2023-03-12T22:46:38.808Z,2.97
2023-03-12T22:49:08.727Z,2.83
2023-03-12T22:51:39.067Z,3.00
2023-03-12T22:54:09.608Z,3.08
2023-03-12T22:56:41.315Z,3.25
2023-03-12T22:59:12.140Z,3.50
2023-03-12T23:01:42.360Z,3.63
2023-03-12T23:04:15.269Z,3.00
2023-03-12T23:06:46.786Z,2.90
2023-03-12T23:09:20.730Z,3.05
2023-03-12T23:11:51.045Z,3.80
2023-03-12T23:14:21.139Z,3.88
2023-03-12T23:16:51.996Z,2.92
2023-03-12T23:19:21.854Z,2.80
2023-03-12T23:21:51.618Z,2.78
2023-03-12T23:24:23.354Z,2.65
2023-03-12T23:26:54.594Z,3.42
2023-03-12T23:29:25.035Z,3.65
2023-03-12T23:31:55.025Z,3.08
2023-03-12T23:34:25.370Z,2.63
2023-03-12T23:36:55.607Z,3.15
2023-03-12T23:39:26.188Z,2.60
2023-03-12T23:41:57.446Z,2.58
2023-03-12T23:44:27.927Z,2.90
2023-03-12T23:46:57.581Z,2.85
2023-03-12T23:49:27.547Z,2.80
2023-03-12T23:51:57.852Z,2.38
2023-03-12T23:54:27.522Z,3.22
2023-03-12T23:56:57.687Z,2.78
2023-03-12T23:59:27.979Z,2.55
